Time;durP1;ratioP1;P1;durP2;ratioP2;P2;SDS_P1;SDS_P2;PMS_P1;PMS_P2;Temp;Humidity;BMP_temperature;BMP_pressure;BME280_temperature;BME280_humidity;BME280_pressure;Samples;Min_cycle;Max_cycle;Signal;HPM_P1;HPM_P2
2023/08/28 00:00:53;;;;;;;1.98;1.42;;;;;;;22.87;78.80;98779.53;5095445;28;20040;-62
2023/08/28 00:03:22;;;;;;;1.25;0.85;;;;;;;22.87;79.02;98772.56;5095528;28;20445;-62
2023/08/28 00:05:51;;;;;;;1.58;1.10;;;;;;;22.88;79.25;98770.81;5095279;28;20531;-62
2023/08/28 00:08:21;;;;;;;0.60;0.60;;;;;;;22.86;79.22;98767.47;5095382;28;20062;-62
2023/08/28 00:10:53;;;;;;;3.10;1.23;;;;;;;22.76;79.54;98763.78;5094992;28;20044;-62
2023/08/28 00:13:22;;;;;;;4.40;1.98;;;;;;;22.75;79.56;98768.16;5095352;28;20072;-62
2023/08/28 00:15:51;;;;;;;1.75;1.60;;;;;;;22.80;79.61;98775.66;5094817;28;20051;-62
2023/08/28 00:18:20;;;;;;;0.50;0.50;;;;;;;22.75;79.57;98775.97;5095375;28;20036;-62
2023/08/28 00:20:49;;;;;;;1.38;1.30;;;;;;;22.72;79.60;98780.56;5094795;28;20036;-62
2023/08/28 00:23:18;;;;;;;3.28;1.30;;;;;;;22.74;79.65;98781.28;5094990;28;20382;-62
2023/08/28 00:25:48;;;;;;;1.85;1.42;;;;;;;22.73;79.54;98777.00;5094584;28;20032;-62
2023/08/28 00:28:17;;;;;;;3.25;1.05;;;;;;;22.71;79.92;98778.88;5094704;28;20067;-62
2023/08/28 00:30:46;;;;;;;3.30;1.80;;;;;;;22.77;79.85;98775.88;5094876;28;20448;-62
2023/08/28 00:33:16;;;;;;;1.40;1.05;;;;;;;22.70;79.95;98777.22;5095132;28;20093;-62
2023/08/28 00:35:46;;;;;;;0.80;0.75;;;;;;;22.68;80.10;98770.34;5094758;28;20048;-62
2023/08/28 00:38:15;;;;;;;0.82;0.82;;;;;;;22.67;80.21;98773.84;5094998;28;20126;-62
2023/08/28 00:40:44;;;;;;;1.00;0.95;;;;;;;22.60;80.35;98777.75;5094775;28;20113;-62
2023/08/28 00:43:15;;;;;;;2.25;1.40;;;;;;;22.53;80.59;98776.47;5093616;28;20508;-62
2023/08/28 00:45:45;;;;;;;1.17;1.08;;;;;;;22.43;80.91;98775.41;5094743;28;20032;-62
2023/08/28 00:48:16;;;;;;;;;;;;;;;22.36;81.03;98781.91;5093425;28;20043;-62
2023/08/28 00:50:47;;;;;;;1.40;0.98;;;;;;;22.44;81.14;98771.88;5094250;28;20373;-62
2023/08/28 00:53:17;;;;;;;2.35;1.10;;;;;;;22.45;81.21;98768.34;5093044;28;20135;-62
2023/08/28 00:55:46;;;;;;;1.00;0.88;;;;;;;22.40;81.16;98773.00;5093028;28;20105;-62
2023/08/28 00:58:17;;;;;;;3.05;1.52;;;;;;;22.37;81.30;98783.59;5094260;28;20127;-62
2023/08/28 01:00:47;;;;;;;1.25;1.15;;;;;;;22.30;81.30;98777.09;5092982;28;20054;-62
2023/08/28 01:03:16;;;;;;;0.70;0.70;;;;;;;22.26;81.44;98780.84;5092704;28;20047;-62
2023/08/28 01:05:54;;;;;;;1.08;1.00;;;;;;;22.23;81.66;98788.81;5093027;28;20036;-61
2023/08/28 01:08:30;;;;;;;0.95;0.88;;;;;;;22.30;81.86;98804.88;5093877;28;20585;-62
2023/08/28 01:11:09;;;;;;;0.82;0.80;;;;;;;22.33;81.90;98805.53;5094191;28;20056;-62
2023/08/28 01:13:48;;;;;;;1.08;0.77;;;;;;;22.36;81.67;98810.50;5093896;28;20493;-62
2023/08/28 01:16:20;;;;;;;1.95;0.88;;;;;;;22.40;81.51;98812.00;5093873;28;20509;-62
2023/08/28 01:18:49;;;;;;;1.50;1.38;;;;;;;22.38;81.76;98811.28;5093178;28;20406;-62
2023/08/28 01:21:18;;;;;;;;;;;;;;;22.39;81.57;98805.13;5094382;28;20048;-62
2023/08/28 01:23:55;;;;;;;3.05;1.67;;;;;;;22.28;81.82;98807.56;5092451;28;19920;-62
2023/08/28 01:26:27;;;;;;;1.20;1.10;;;;;;;22.30;82.03;98807.47;5092580;28;20498;-62
2023/08/28 01:28:56;;;;;;;2.83;1.35;;;;;;;22.38;82.02;98803.47;5092703;28;20405;-62
2023/08/28 01:31:25;;;;;;;2.08;0.80;;;;;;;22.45;81.62;98789.16;5093650;28;20538;-62
2023/08/28 01:33:55;;;;;;;0.95;0.85;;;;;;;22.53;81.45;98781.69;5093591;28;20098;-62
2023/08/28 01:36:31;;;;;;;1.02;0.85;;;;;;;22.57;81.27;98777.97;5092809;28;20048;-62
2023/08/28 01:39:06;;;;;;;0.77;0.77;;;;;;;22.61;81.11;98789.88;5093633;28;20036;-62
2023/08/28 01:41:41;;;;;;;1.20;1.08;;;;;;;22.64;81.19;98789.69;5093957;28;20051;-62
2023/08/28 01:44:12;;;;;;;1.20;0.98;;;;;;;22.66;81.01;98787.81;5093702;28;20067;-62
2023/08/28 01:46:41;;;;;;;0.93;0.82;;;;;;;22.68;80.74;98785.94;5093821;28;20448;-62
2023/08/28 01:49:10;;;;;;;1.10;0.98;;;;;;;22.75;80.81;98793.38;5093420;28;20122;-62
2023/08/28 01:51:39;;;;;;;0.93;0.60;;;;;;;22.73;80.62;98792.59;5093487;28;20449;-62
2023/08/28 01:54:08;;;;;;;1.10;1.00;;;;;;;22.76;80.54;98793.25;5093491;28;20040;-62
2023/08/28 01:56:39;;;;;;;1.92;1.58;;;;;;;22.76;80.39;98795.03;5092616;28;20473;-62
2023/08/28 01:59:07;;;;;;;3.63;1.58;;;;;;;22.82;80.12;98802.44;5092168;28;20119;-62
2023/08/28 02:01:36;;;;;;;0.90;0.75;;;;;;;22.74;79.99;98800.34;5092165;28;20043;-62
2023/08/28 02:04:06;;;;;;;2.22;1.48;;;;;;;22.60;80.38;98795.16;5093536;28;20044;-62
2023/08/28 02:06:35;;;;;;;1.92;1.33;;;;;;;22.60;80.34;98793.34;5092481;28;20040;-62
2023/08/28 02:09:04;;;;;;;1.75;1.65;;;;;;;22.60;80.35;98798.56;5093627;28;20113;-62
2023/08/28 02:11:34;;;;;;;2.05;1.63;;;;;;;22.47;80.42;98792.47;5092067;28;20505;-62
2023/08/28 02:14:07;;;;;;;1.05;0.95;;;;;;;22.45;80.56;98788.31;5093561;28;20532;-61
2023/08/28 02:16:38;;;;;;;0.82;0.75;;;;;;;22.48;80.38;98788.94;5092390;28;20406;-61
2023/08/28 02:19:07;;;;;;;0.70;0.70;;;;;;;22.50;80.25;98787.09;5095384;28;20040;-62
2023/08/28 02:21:37;;;;;;;0.93;0.85;;;;;;;22.48;80.00;98794.13;5095846;28;20052;-62
2023/08/28 02:24:06;;;;;;;;;;;;;;;22.48;79.81;98807.13;5097381;28;20098;-62
2023/08/28 02:26:35;;;;;;;1.02;0.90;;;;;;;22.44;79.78;98790.06;5096182;28;19979;-62
2023/08/28 02:29:06;;;;;;;1.00;0.93;;;;;;;22.48;79.74;98795.94;5096057;28;20426;-62
2023/08/28 02:31:35;;;;;;;2.03;1.13;;;;;;;22.52;79.62;98785.22;5095769;28;20048;-62
2023/08/28 02:34:07;;;;;;;1.25;0.82;;;;;;;22.48;79.60;98778.53;5096233;28;20040;-62
2023/08/28 02:36:36;;;;;;;0.55;0.55;;;;;;;22.54;79.25;98775.56;5096865;28;20089;-62
2023/08/28 02:39:05;;;;;;;0.63;0.63;;;;;;;22.52;79.34;98780.03;5095607;28;20067;-62
2023/08/28 02:41:33;;;;;;;;;;;;;;;22.46;79.29;98775.19;5097642;28;20166;-62
2023/08/28 02:44:03;;;;;;;1.25;1.15;;;;;;;22.45;79.16;98773.53;5096603;28;19919;-62
2023/08/28 02:46:33;;;;;;;0.73;0.70;;;;;;;22.44;79.11;98771.88;5097733;28;20366;-62
2023/08/28 02:49:02;;;;;;;1.30;1.20;;;;;;;22.45;79.20;98760.53;5096651;28;20070;-62
2023/08/28 02:51:31;;;;;;;2.20;0.98;;;;;;;22.43;79.25;98767.63;5095556;28;20137;-64
2023/08/28 02:54:00;;;;;;;1.05;0.90;;;;;;;22.45;79.22;98763.16;5095781;28;20069;-62
2023/08/28 02:56:38;;;;;;;1.30;0.88;;;;;;;22.43;79.37;98765.00;5095837;28;20047;-62
2023/08/28 02:59:07;;;;;;;1.08;0.98;;;;;;;22.38;79.29;98761.03;5096683;28;20160;-62
2023/08/28 03:01:37;;;;;;;2.53;1.77;;;;;;;22.34;79.31;98762.97;5096276;28;20128;-62
2023/08/28 03:04:07;;;;;;;0.82;0.77;;;;;;;22.33;79.30;98761.31;5096272;28;20121;-62
2023/08/28 03:06:38;;;;;;;2.45;1.35;;;;;;;22.35;79.18;98764.66;5096235;28;20068;-62
2023/08/28 03:09:08;;;;;;;1.38;1.27;;;;;;;22.34;78.72;98775.97;5095899;28;20036;-62
2023/08/28 03:11:37;;;;;;;2.30;0.65;;;;;;;22.29;78.12;98772.00;5096132;28;20036;-62
2023/08/28 03:14:07;;;;;;;0.50;0.50;;;;;;;22.25;77.50;98778.31;5094902;28;20044;-61
2023/08/28 03:16:37;;;;;;;0.60;0.60;;;;;;;22.27;76.91;98773.84;5096028;28;20089;-61
2023/08/28 03:19:07;;;;;;;0.50;0.50;;;;;;;22.24;76.31;98774.06;5094907;28;20044;-61
2023/08/28 03:21:36;;;;;;;0.50;0.50;;;;;;;22.27;76.24;98773.84;5094906;28;20482;-60
2023/08/28 03:24:05;;;;;;;;;;;;;;;22.29;76.07;98777.22;5095851;28;20501;-61
2023/08/28 03:26:34;;;;;;;0.80;0.80;;;;;;;22.31;75.79;98784.00;5095809;28;19924;-61
2023/08/28 03:29:04;;;;;;;1.65;0.75;;;;;;;22.34;75.58;98778.56;5094632;28;20075;-61
2023/08/28 03:31:32;;;;;;;;;;;;;;;22.33;75.41;98774.31;5096396;28;20445;-61
2023/08/28 03:34:04;;;;;;;0.57;0.57;;;;;;;22.28;75.34;98778.97;5095655;28;19924;-62
2023/08/28 03:36:33;;;;;;;1.35;0.80;;;;;;;22.29;75.30;98778.03;5095652;28;20097;-62
2023/08/28 03:39:02;;;;;;;1.15;1.05;;;;;;;22.37;75.36;98767.97;5095599;28;20067;-62
2023/08/28 03:41:31;;;;;;;0.70;0.70;;;;;;;22.38;75.22;98767.06;5094326;28;20090;-62
2023/08/28 03:44:00;;;;;;;0.80;0.80;;;;;;;22.36;75.04;98768.09;5095779;28;20127;-62
2023/08/28 03:46:29;;;;;;;0.60;0.60;;;;;;;22.35;75.10;98767.25;5095768;28;20095;-62
2023/08/28 03:48:58;;;;;;;0.50;0.50;;;;;;;22.41;74.96;98776.44;5094198;28;20044;-62
2023/08/28 03:51:28;;;;;;;1.10;0.93;;;;;;;22.43;75.06;98777.19;5095643;28;20048;-61
2023/08/28 03:53:57;;;;;;;0.50;0.50;;;;;;;22.43;75.25;98778.00;5095581;28;20052;-62
2023/08/28 03:56:26;;;;;;;1.98;1.08;;;;;;;22.44;75.36;98776.22;5095267;28;20079;-62
2023/08/28 03:58:55;;;;;;;0.50;0.50;;;;;;;22.42;75.76;98776.34;5095544;28;20059;-61
2023/08/28 04:01:24;;;;;;;2.22;0.95;;;;;;;22.41;75.42;98772.06;5093987;28;20066;-62
2023/08/28 04:03:53;;;;;;;0.55;0.55;;;;;;;22.44;75.45;98787.47;5094303;28;20427;-62
2023/08/28 04:06:22;;;;;;;0.63;0.63;;;;;;;22.40;75.20;98790.38;5095129;28;20040;-62
2023/08/28 04:08:53;;;;;;;1.65;0.82;;;;;;;22.42;74.95;98784.13;5093938;28;20068;-62
2023/08/28 04:11:22;;;;;;;0.50;0.50;;;;;;;22.39;74.79;98784.31;5094133;28;20444;-62
2023/08/28 04:13:51;;;;;;;0.50;0.50;;;;;;;22.40;74.69;98780.81;5093696;28;20051;-62
2023/08/28 04:16:20;;;;;;;0.70;0.70;;;;;;;22.36;74.45;98779.31;5093682;28;20383;-62
2023/08/28 04:18:49;;;;;;;1.80;1.02;;;;;;;22.34;74.52;98770.78;5093693;28;20120;-62
2023/08/28 04:21:18;;;;;;;0.80;0.70;;;;;;;22.35;74.54;98772.44;5093686;28;20048;-62
2023/08/28 04:23:47;;;;;;;1.00;0.90;;;;;;;22.37;74.75;98767.97;5095002;28;20040;-62
2023/08/28 04:26:17;;;;;;;0.80;0.77;;;;;;;22.42;74.82;98771.13;5094685;28;20032;-62
2023/08/28 04:28:46;;;;;;;0.75;0.68;;;;;;;22.45;74.72;98778.75;5093731;28;20089;-62
2023/08/28 04:31:15;;;;;;;0.70;0.70;;;;;;;22.37;75.06;98764.53;5094598;28;20036;-62
2023/08/28 04:33:45;;;;;;;0.63;0.63;;;;;;;22.35;75.11;98761.22;5093390;28;20051;-62
2023/08/28 04:36:14;;;;;;;0.90;0.90;;;;;;;22.32;75.26;98757.03;5094413;28;20051;-62
2023/08/28 04:38:43;;;;;;;1.00;0.80;;;;;;;22.32;75.65;98751.00;5093272;28;20044;-62
2023/08/28 04:41:12;;;;;;;0.82;0.82;;;;;;;22.32;76.00;98746.63;5092951;28;20087;-62
2023/08/28 04:43:42;;;;;;;0.50;0.50;;;;;;;22.35;76.40;98745.59;5094638;28;20050;-62
2023/08/28 04:46:11;;;;;;;0.75;0.73;;;;;;;22.38;76.41;98732.41;5093063;28;20036;-62
2023/08/28 04:48:40;;;;;;;1.33;0.88;;;;;;;22.36;76.49;98731.69;5093129;28;20044;-61
2023/08/28 04:51:09;;;;;;;2.92;1.05;;;;;;;22.42;76.46;98736.47;5093641;28;20038;-61
2023/08/28 04:53:38;;;;;;;1.23;0.85;;;;;;;22.44;76.38;98732.84;5092842;28;20464;-62
2023/08/28 04:56:07;;;;;;;0.88;0.63;;;;;;;22.49;76.17;98738.59;5093182;28;20036;-62
2023/08/28 04:58:36;;;;;;;1.17;1.08;;;;;;;22.53;76.11;98734.84;5094090;28;20032;-62
2023/08/28 05:01:06;;;;;;;0.75;0.75;;;;;;;22.60;75.95;98730.13;5094357;28;20040;-62
2023/08/28 05:03:35;;;;;;;1.90;0.68;;;;;;;22.64;75.68;98742.00;5092889;28;20043;-62
2023/08/28 05:06:05;;;;;;;0.60;0.60;;;;;;;22.63;75.62;98733.38;5092710;28;20040;-62
2023/08/28 05:08:33;;;;;;;;;;;;;;;22.74;75.48;98731.84;5093162;28;20491;-62
2023/08/28 05:11:04;;;;;;;1.77;0.82;;;;;;;22.79;75.30;98725.41;5093113;28;20382;-62
2023/08/28 05:13:33;;;;;;;1.10;1.00;;;;;;;22.86;75.13;98715.44;5094474;28;20394;-62
2023/08/28 05:16:04;;;;;;;1.08;0.80;;;;;;;22.81;74.91;98702.72;5093745;28;20131;-62
2023/08/28 05:18:34;;;;;;;0.60;0.60;;;;;;;22.77;75.12;98700.44;5093824;28;20052;-62
2023/08/28 05:21:03;;;;;;;1.17;0.77;;;;;;;22.81;75.06;98704.47;5092709;28;20117;-62
2023/08/28 05:23:32;;;;;;;0.60;0.60;;;;;;;22.87;75.27;98712.72;5094045;28;20542;-62
2023/08/28 05:26:01;;;;;;;0.70;0.68;;;;;;;22.93;75.04;98711.47;5092868;28;20403;-62
2023/08/28 05:28:31;;;;;;;0.60;0.60;;;;;;;22.97;75.22;98698.16;5092840;28;20539;-62
2023/08/28 05:31:00;;;;;;;0.73;0.73;;;;;;;22.95;75.18;98700.03;5093709;28;20052;-63
2023/08/28 05:33:29;;;;;;;1.30;1.20;;;;;;;22.97;75.34;98697.31;5093924;28;20406;-62
2023/08/28 05:35:59;;;;;;;0.90;0.77;;;;;;;22.99;75.47;98691.06;5092431;28;20130;-62
2023/08/28 05:38:28;;;;;;;0.98;0.70;;;;;;;22.94;75.52;98697.53;5092404;28;20482;-62
2023/08/28 05:40:57;;;;;;;1.38;1.00;;;;;;;23.02;75.48;98690.03;5093869;28;20036;-62
2023/08/28 05:43:26;;;;;;;1.35;1.25;;;;;;;23.06;75.66;98691.53;5092360;28;20561;-61
2023/08/28 05:45:55;;;;;;;0.85;0.85;;;;;;;23.10;75.45;98685.16;5093476;28;20044;-62
2023/08/28 05:48:24;;;;;;;1.20;1.10;;;;;;;23.19;75.53;98681.94;5094041;28;20398;-62
2023/08/28 05:50:53;;;;;;;1.63;0.80;;;;;;;23.29;75.46;98680.38;5092279;28;20041;-62
2023/08/28 05:53:23;;;;;;;1.02;0.95;;;;;;;23.36;75.25;98676.44;5094393;28;20063;-62
2023/08/28 05:55:52;;;;;;;0.75;0.75;;;;;;;23.43;75.02;98669.88;5096539;28;20036;-62
2023/08/28 05:58:21;;;;;;;0.80;0.80;;;;;;;23.46;74.81;98669.66;5096340;28;20044;-62
2023/08/28 06:00:50;;;;;;;1.20;1.10;;;;;;;23.52;74.66;98666.63;5097023;28;20024;-62
2023/08/28 06:03:19;;;;;;;0.50;0.50;;;;;;;23.56;74.61;98660.28;5096586;28;20371;-62
2023/08/28 06:05:48;;;;;;;1.02;0.93;;;;;;;23.57;74.59;98658.47;5095907;28;20119;-63
2023/08/28 06:08:17;;;;;;;1.42;1.30;;;;;;;23.50;74.47;98659.84;5097403;28;20565;-62
2023/08/28 06:10:49;;;;;;;0.88;0.82;;;;;;;23.49;74.72;98658.19;5077114;28;20052;-63
2023/08/28 06:13:18;;;;;;;0.75;0.75;;;;;;;23.52;74.77;98656.19;5075839;28;20102;-62
2023/08/28 06:15:48;;;;;;;1.15;1.05;;;;;;;23.57;74.72;98656.72;5083397;28;20497;-62
2023/08/28 06:18:17;;;;;;;1.90;0.88;;;;;;;23.68;74.74;98642.94;5096350;28;20040;-62
2023/08/28 06:20:46;;;;;;;0.77;0.77;;;;;;;23.80;74.36;98637.66;5095874;28;20044;-62
2023/08/28 06:23:17;;;;;;;0.90;0.88;;;;;;;23.85;74.06;98635.56;5095892;28;20040;-62
2023/08/28 06:25:50;;;;;;;0.82;0.82;;;;;;;23.97;73.81;98624.28;5096015;28;20402;-62
2023/08/28 06:28:19;;;;;;;0.80;0.80;;;;;;;24.09;73.50;98626.97;5096991;28;20055;-62
2023/08/28 06:30:51;;;;;;;2.17;1.02;;;;;;;24.19;73.08;98627.94;5094973;28;20067;-62
2023/08/28 06:33:20;;;;;;;1.63;0.82;;;;;;;24.31;73.00;98624.44;5096020;28;20048;-62
2023/08/28 06:35:49;;;;;;;0.70;0.70;;;;;;;24.41;72.40;98628.88;5096837;28;20044;-62
2023/08/28 06:38:18;;;;;;;;;;;;;;;24.51;72.03;98623.81;5095742;28;20052;-62
2023/08/28 06:40:52;;;;;;;1.23;0.95;;;;;;;24.65;71.89;98615.78;5097110;28;19984;-63
2023/08/28 06:43:20;;;;;;;1.33;0.98;;;;;;;24.66;71.81;98620.06;5094606;28;20040;-63
2023/08/28 06:45:49;;;;;;;4.25;1.75;;;;;;;24.64;71.79;98621.97;5091353;28;20044;-63
2023/08/28 06:48:18;;;;;;;0.90;0.73;;;;;;;24.60;71.80;98612.69;5092371;28;20044;-63
2023/08/28 06:50:47;;;;;;;1.17;1.08;;;;;;;24.73;71.74;98602.16;5095637;28;20040;-62
2023/08/28 06:53:16;;;;;;;1.30;1.13;;;;;;;24.83;71.13;98606.63;5096382;28;20411;-63
2023/08/28 06:55:44;;;;;;;1.65;1.10;;;;;;;24.88;70.91;98601.06;5093708;28;20457;-63
2023/08/28 06:58:15;;;;;;;1.10;1.00;;;;;;;24.91;70.63;98588.56;5094233;28;20036;-62
2023/08/28 07:00:43;;;;;;;1.33;1.23;;;;;;;24.95;70.85;98586.56;5095366;28;20055;-62
2023/08/28 07:03:12;;;;;;;0.60;0.60;;;;;;;24.94;71.08;98592.72;5096269;28;20093;-63
2023/08/28 07:05:41;;;;;;;1.73;1.50;;;;;;;24.86;70.87;98582.06;5095574;28;20052;-62
2023/08/28 07:08:11;;;;;;;2.17;1.40;;;;;;;24.88;71.07;98586.22;5096078;28;20041;-63
2023/08/28 07:10:40;;;;;;;0.82;0.82;;;;;;;24.96;71.38;98586.44;5096175;28;20040;-62
2023/08/28 07:13:09;;;;;;;0.65;0.65;;;;;;;24.90;71.19;98591.31;5096273;28;20458;-62
2023/08/28 07:15:57;;;;;;;1.40;1.27;;;;;;;24.93;71.50;98591.91;5096129;28;20119;-62
2023/08/28 07:18:26;;;;;;;1.88;1.50;;;;;;;25.02;71.07;98601.66;5096027;28;20047;-62
2023/08/28 07:20:56;;;;;;;1.00;0.93;;;;;;;25.04;70.92;98597.16;5095940;28;20044;-62
2023/08/28 07:23:26;;;;;;;2.38;1.25;;;;;;;25.09;71.09;98602.00;5095950;28;20040;-62
2023/08/28 07:25:56;;;;;;;1.83;1.65;;;;;;;25.16;70.67;98604.03;5095875;28;20047;-62
2023/08/28 07:28:25;;;;;;;0.80;0.80;;;;;;;25.28;70.33;98597.88;5096236;28;20475;-63
2023/08/28 07:31:00;;;;;;;2.17;1.52;;;;;;;25.41;69.54;98592.47;5095722;28;20051;-62
2023/08/28 07:33:29;;;;;;;1.27;1.00;;;;;;;25.56;69.04;98593.09;5096000;28;20424;-62
2023/08/28 07:35:58;;;;;;;1.25;0.88;;;;;;;25.58;68.75;98596.44;5095735;28;20068;-62
2023/08/28 07:38:27;;;;;;;1.35;1.10;;;;;;;25.64;68.22;98595.94;5095213;28;20052;-65
2023/08/28 07:40:56;;;;;;;1.75;1.60;;;;;;;25.66;68.42;98589.63;5092758;28;20036;-63
2023/08/28 07:43:25;;;;;;;4.47;2.00;;;;;;;25.72;67.91;98583.09;5095834;28;20573;-62
2023/08/28 07:45:55;;;;;;;0.73;0.73;;;;;;;25.78;68.01;98587.81;5095524;28;20044;-62
2023/08/28 07:48:25;;;;;;;1.05;1.00;;;;;;;25.81;67.78;98587.59;5094265;28;20401;-63
2023/08/28 07:50:54;;;;;;;1.17;1.02;;;;;;;25.83;67.59;98585.69;5095706;28;20098;-62
2023/08/28 07:53:23;;;;;;;3.88;1.20;;;;;;;25.97;67.84;98582.78;5098359;28;20052;-63
2023/08/28 07:55:52;;;;;;;1.25;1.15;;;;;;;26.05;67.22;98583.00;5105063;28;20048;-62
2023/08/28 07:58:21;;;;;;;1.20;0.90;;;;;;;26.17;67.28;98589.88;5095515;28;20098;-63
2023/08/28 08:00:51;;;;;;;0.55;0.55;;;;;;;26.29;66.92;98588.88;5094079;28;20039;-63
2023/08/28 08:03:21;;;;;;;1.90;1.73;;;;;;;26.39;66.58;98592.41;5082373;28;20059;-63
2023/08/28 08:05:52;;;;;;;2.58;1.92;;;;;;;26.47;66.10;98587.34;5095045;28;20044;-62
2023/08/28 08:08:21;;;;;;;2.15;1.77;;;;;;;26.69;66.23;98577.69;5094906;28;20047;-63
2023/08/28 08:10:50;;;;;;;1.52;1.42;;;;;;;26.87;65.54;98584.03;5094915;28;20124;-62
2023/08/28 08:13:19;;;;;;;1.70;1.23;;;;;;;26.90;64.74;98594.25;5093778;28;20098;-62
2023/08/28 08:15:48;;;;;;;0.75;0.70;;;;;;;26.93;64.68;98583.50;5094160;28;20089;-62
2023/08/28 08:18:17;;;;;;;1.17;1.08;;;;;;;27.07;64.40;98583.16;5094580;28;20048;-63
2023/08/28 08:20:46;;;;;;;4.45;1.98;;;;;;;27.26;65.02;98585.84;5095703;28;20059;-63
2023/08/28 08:23:17;;;;;;;2.35;1.38;;;;;;;27.33;64.67;98583.56;5093927;28;20036;-63
2023/08/28 08:25:45;;;;;;;1.33;1.20;;;;;;;27.40;64.45;98582.91;5091587;28;20058;-62
2023/08/28 08:28:15;;;;;;;1.55;1.35;;;;;;;27.44;63.91;98581.69;5094025;28;20569;-62
2023/08/28 08:30:44;;;;;;;1.55;1.45;;;;;;;27.45;63.55;98580.69;5087793;28;20080;-62
2023/08/28 08:33:13;;;;;;;1.05;0.98;;;;;;;27.59;63.89;98593.47;5093683;28;20032;-61
2023/08/28 08:35:42;;;;;;;1.75;1.55;;;;;;;27.80;64.81;98585.47;5094787;28;20032;-62
2023/08/28 08:38:19;;;;;;;0.63;0.63;;;;;;;27.86;64.22;98591.00;5132876;27;20371;-60
2023/08/28 08:40:53;;;;;;;1.95;0.85;;;;;;;27.88;63.18;98583.81;5130823;27;20071;-61
2023/08/28 08:43:22;;;;;;;1.13;0.90;;;;;;;27.91;62.59;98588.81;5131769;28;20058;-61
2023/08/28 08:45:55;;;;;;;1.52;0.95;;;;;;;27.87;62.11;98582.19;5131887;27;20550;-62
2023/08/28 08:48:25;;;;;;;1.20;1.10;;;;;;;27.82;61.96;98584.38;5111485;28;20468;-63
2023/08/28 08:51:04;;;;;;;0.60;0.60;;;;;;;27.81;61.72;98581.91;5116815;27;20035;-63
2023/08/28 08:53:44;;;;;;;0.98;0.93;;;;;;;27.85;61.80;98573.63;5130330;27;20048;-60
2023/08/28 08:56:18;;;;;;;2.53;1.15;;;;;;;27.93;61.52;98563.25;5128879;28;20132;-62
2023/08/28 08:58:48;;;;;;;1.70;1.48;;;;;;;28.01;61.42;98567.84;5130349;27;20112;-62
2023/08/28 09:01:18;;;;;;;;;;;;;;;28.05;61.27;98573.66;5139392;27;20039;-67
2023/08/28 09:03:48;;;;;;;0.68;0.60;;;;;;;28.18;61.35;98568.97;5125251;28;19920;-60
2023/08/28 09:06:17;;;;;;;2.38;2.08;;;;;;;28.35;61.08;98560.38;5131392;27;20045;-62
2023/08/28 09:08:48;;;;;;;14.20;9.55;;;;;;;28.42;61.01;98557.06;5126747;27;20063;-61
2023/08/28 09:11:17;;;;;;;4.15;1.58;;;;;;;28.47;60.52;98548.75;5128418;27;20409;-63
2023/08/28 09:13:46;;;;;;;2.42;1.05;;;;;;;28.59;59.91;98547.63;5122469;28;20035;-62
2023/08/28 09:16:15;;;;;;;1.75;1.30;;;;;;;28.71;59.64;98546.53;5127152;28;20035;-62
2023/08/28 09:18:45;;;;;;;1.02;0.93;;;;;;;28.76;59.98;98544.31;5131032;28;20043;-62
2023/08/28 09:21:14;;;;;;;1.17;1.08;;;;;;;28.77;59.88;98539.88;5131539;27;20100;-62
2023/08/28 09:23:44;;;;;;;1.15;1.05;;;;;;;28.82;59.88;98537.66;5131051;27;20043;-63
2023/08/28 09:26:21;;;;;;;1.50;1.17;;;;;;;28.77;59.79;98527.53;5131408;27;20090;-62
2023/08/28 09:29:03;;;;;;;1.48;1.27;;;;;;;28.86;59.36;98524.09;5130047;27;20043;-62
2023/08/28 09:31:34;;;;;;;2.78;1.33;;;;;;;28.90;58.91;98508.84;5129750;27;20044;-63
2023/08/28 09:34:04;;;;;;;1.85;1.30;;;;;;;29.00;58.63;98505.22;5142199;27;20035;-62
2023/08/28 09:36:40;;;;;;;1.75;1.05;;;;;;;29.20;59.44;98500.72;5130706;27;20401;-62
2023/08/28 09:39:13;;;;;;;5.53;1.52;;;;;;;29.36;59.48;98507.94;5130710;28;20044;-63
2023/08/28 09:41:47;;;;;;;1.98;1.55;;;;;;;29.43;58.69;98499.31;5129116;27;20036;-62
2023/08/28 09:44:18;;;;;;;1.00;0.88;;;;;;;29.45;58.50;98496.53;5129371;27;20077;-62
2023/08/28 09:46:49;;;;;;;4.13;1.13;;;;;;;29.46;58.70;98495.56;5133618;27;20070;-63
2023/08/28 09:49:19;;;;;;;2.80;1.33;;;;;;;29.55;58.51;98499.94;5138983;27;20396;-63
2023/08/28 09:51:50;;;;;;;;;;;;;;;29.60;58.22;98487.16;5131017;27;20039;-62
2023/08/28 09:54:19;;;;;;;1.55;1.33;;;;;;;29.57;58.19;98490.09;5116762;28;19919;-62
2023/08/28 09:56:49;;;;;;;1.50;1.15;;;;;;;29.72;58.20;98485.97;5116632;28;20040;-62
2023/08/28 09:59:19;;;;;;;1.27;1.17;;;;;;;29.85;57.76;98486.41;5114342;28;20052;-63
2023/08/28 10:01:48;;;;;;;1.27;1.17;;;;;;;29.97;57.49;98481.78;5096596;28;20117;-62
2023/08/28 10:04:20;;;;;;;;;;;;;;;29.91;56.80;98480.56;5096631;28;20040;-62
2023/08/28 10:06:50;;;;;;;2.47;1.23;;;;;;;29.65;56.69;98484.91;5096201;28;19932;-62
2023/08/28 10:09:22;;;;;;;8.02;6.63;;;;;;;29.66;56.63;98478.66;5108743;28;20071;-62
2023/08/28 10:11:54;;;;;;;7.50;4.50;;;;;;;29.86;56.34;98477.56;5136308;27;20507;-62
2023/08/28 10:14:28;;;;;;;2.05;1.63;;;;;;;29.98;56.34;98476.34;5102852;27;20125;-63
2023/08/28 10:17:03;;;;;;;0.80;0.80;;;;;;;30.06;56.64;98473.78;5095849;28;20048;-62
2023/08/28 10:19:38;;;;;;;1.45;1.30;;;;;;;30.22;55.87;98462.53;5095956;28;20050;-64
2023/08/28 10:22:08;;;;;;;1.90;1.75;;;;;;;30.20;55.16;98462.69;5096258;28;20051;-62
2023/08/28 10:24:42;;;;;;;1.05;0.95;;;;;;;30.16;55.60;98453.44;5095837;28;20526;-62
2023/08/28 10:27:14;;;;;;;2.47;0.85;;;;;;;30.31;55.15;98459.78;5096085;28;20159;-62
2023/08/28 10:29:46;;;;;;;1.40;1.30;;;;;;;30.37;54.85;98456.59;5096942;28;20055;-63
2023/08/28 10:32:15;;;;;;;1.73;1.40;;;;;;;30.47;55.66;98445.94;5116144;28;20039;-62
2023/08/28 10:34:45;;;;;;;;;;;;;;;30.65;55.57;98448.47;5114648;28;20040;-62
2023/08/28 10:37:14;;;;;;;1.38;1.20;;;;;;;30.84;55.80;98440.34;5115628;28;19926;-62
2023/08/28 10:39:58;;;;;;;1.73;0.95;;;;;;;30.95;54.61;98445.38;5116554;28;20104;-62
2023/08/28 10:42:31;;;;;;;1.55;1.08;;;;;;;30.98;54.49;98434.47;5113873;28;20096;-62
2023/08/28 10:45:00;;;;;;;2.30;1.75;;;;;;;31.10;54.36;98433.19;5116173;28;20146;-63
2023/08/28 10:47:32;;;;;;;2.58;1.65;;;;;;;31.19;54.56;98426.97;5100982;28;20074;-62
2023/08/28 10:50:02;;;;;;;3.28;0.88;;;;;;;31.36;54.11;98433.09;5095624;28;20409;-62
2023/08/28 10:52:31;;;;;;;2.17;1.85;;;;;;;31.46;53.42;98429.34;5105136;28;20044;-62
2023/08/28 10:55:05;;;;;;;1.33;1.23;;;;;;;31.46;53.28;98434.63;5114585;28;20494;-62
2023/08/28 10:57:39;;;;;;;2.17;1.58;;;;;;;31.64;53.28;98427.41;5132800;27;20485;-62
2023/08/28 11:00:15;;;;;;;2.03;1.38;;;;;;;31.77;52.67;98430.34;5123145;27;20093;-63
2023/08/28 11:03:07;;;;;;;3.90;2.17;;;;;;;31.94;52.10;98417.97;5132424;27;20043;-65
2023/08/28 11:05:39;;;;;;;4.15;1.52;;;;;;;31.88;51.45;98413.38;5091587;28;20432;-62
2023/08/28 11:08:11;;;;;;;2.47;1.88;;;;;;;31.94;52.31;98411.88;5098483;28;20059;-62
2023/08/28 11:10:44;;;;;;;1.20;1.10;;;;;;;31.92;51.99;98408.56;5096256;28;20036;-62
2023/08/28 11:13:23;;;;;;;2.33;1.58;;;;;;;32.13;52.60;98401.78;5115330;28;20043;-62
2023/08/28 11:16:03;;;;;;;2.90;1.35;;;;;;;32.34;53.11;98388.06;5115580;28;20047;-62
2023/08/28 11:18:33;;;;;;;1.35;1.20;;;;;;;32.28;52.72;98404.56;5112882;28;20063;-62
2023/08/28 11:21:03;;;;;;;1.92;1.17;;;;;;;32.40;52.46;98393.47;5115301;28;20027;-62
2023/08/28 11:23:36;;;;;;;5.70;1.92;;;;;;;32.61;53.15;98389.47;5115040;28;20439;-62
2023/08/28 11:26:27;;;;;;;2.08;1.40;;;;;;;32.68;52.99;98385.16;5115401;28;20105;-62
2023/08/28 11:28:58;;;;;;;1.42;1.33;;;;;;;32.68;51.82;98390.44;5113743;28;20043;-62
2023/08/28 11:31:33;;;;;;;1.40;1.13;;;;;;;32.75;51.68;98381.66;5111997;28;20071;-66
2023/08/28 11:34:03;;;;;;;1.98;1.67;;;;;;;32.65;50.61;98381.03;5111106;28;20516;-62
2023/08/28 11:36:40;;;;;;;1.08;1.00;;;;;;;32.67;51.36;98384.31;5114780;28;20134;-62
2023/08/28 11:39:20;;;;;;;1.08;0.98;;;;;;;32.75;51.57;98381.66;5110900;28;20054;-62
2023/08/28 11:41:49;;;;;;;1.50;1.15;;;;;;;32.87;51.02;98374.97;5094008;28;20137;-62
2023/08/28 11:44:19;;;;;;;;;;;;;;;32.83;51.10;98373.66;5106430;28;20052;-62
2023/08/28 11:46:48;;;;;;;2.30;1.15;;;;;;;32.93;50.92;98368.16;5114647;28;20278;-62
2023/08/28 11:49:17;;;;;;;1.65;1.55;;;;;;;32.98;50.13;98369.28;5112346;28;20183;-62
2023/08/28 11:51:47;;;;;;;1.65;1.30;;;;;;;33.11;50.23;98359.97;5111686;28;20035;-62